sensor_id;sensor_type;location;lat;lon;timestamp;temperature;humidity
3736;DHT22;1883;48.202;16.310;2024-02-14T00:00:19;5.80;65.60
3736;DHT22;1883;48.202;16.310;2024-02-14T00:02:47;5.80;65.60
3736;DHT22;1883;48.202;16.310;2024-02-14T00:05:18;5.80;65.60
3736;DHT22;1883;48.202;16.310;2024-02-14T00:07:45;5.90;65.50
3736;DHT22;1883;48.202;16.310;2024-02-14T00:10:12;5.80;65.60
3736;DHT22;1883;48.202;16.310;2024-02-14T00:12:40;5.80;65.60
3736;DHT22;1883;48.202;16.310;2024-02-14T00:15:09;5.80;65.60
3736;DHT22;1883;48.202;16.310;2024-02-14T00:17:38;5.80;65.60
3736;DHT22;1883;48.202;16.310;2024-02-14T00:20:06;5.80;65.60
3736;DHT22;1883;48.202;16.310;2024-02-14T00:22:38;5.70;65.60
3736;DHT22;1883;48.202;16.310;2024-02-14T00:25:09;5.70;65.50
3736;DHT22;1883;48.202;16.310;2024-02-14T00:27:43;5.70;65.50
3736;DHT22;1883;48.202;16.310;2024-02-14T00:30:10;5.70;65.50
3736;DHT22;1883;48.202;16.310;2024-02-14T00:32:40;5.60;65.40
3736;DHT22;1883;48.202;16.310;2024-02-14T00:35:09;5.50;65.30
3736;DHT22;1883;48.202;16.310;2024-02-14T00:37:40;5.50;65.30
3736;DHT22;1883;48.202;16.310;2024-02-14T00:40:09;5.40;65.20
3736;DHT22;1883;48.202;16.310;2024-02-14T00:42:39;5.40;65.20
3736;DHT22;1883;48.202;16.310;2024-02-14T00:45:08;5.40;65.10
3736;DHT22;1883;48.202;16.310;2024-02-14T00:47:35;5.30;65.00
3736;DHT22;1883;48.202;16.310;2024-02-14T00:50:02;5.30;65.00
3736;DHT22;1883;48.202;16.310;2024-02-14T00:52:29;5.30;65.00
3736;DHT22;1883;48.202;16.310;2024-02-14T00:55:08;5.30;64.90
3736;DHT22;1883;48.202;16.310;2024-02-14T00:57:37;5.40;65.00
3736;DHT22;1883;48.202;16.310;2024-02-14T01:00:07;5.40;65.00
3736;DHT22;1883;48.202;16.310;2024-02-14T01:02:34;5.50;65.10
3736;DHT22;1883;48.202;16.310;2024-02-14T01:05:04;5.40;65.10
3736;DHT22;1883;48.202;16.310;2024-02-14T01:07:31;5.50;65.10
3736;DHT22;1883;48.202;16.310;2024-02-14T01:09:59;5.50;65.10
3736;DHT22;1883;48.202;16.310;2024-02-14T01:12:28;5.50;65.10
3736;DHT22;1883;48.202;16.310;2024-02-14T01:14:55;5.60;65.20
3736;DHT22;1883;48.202;16.310;2024-02-14T01:17:24;5.50;65.00
3736;DHT22;1883;48.202;16.310;2024-02-14T01:19:52;5.50;65.10
3736;DHT22;1883;48.202;16.310;2024-02-14T01:22:19;5.40;65.00
3736;DHT22;1883;48.202;16.310;2024-02-14T01:24:47;5.40;64.90
3736;DHT22;1883;48.202;16.310;2024-02-14T01:27:14;5.20;64.90
3736;DHT22;1883;48.202;16.310;2024-02-14T01:29:43;5.10;64.80
3736;DHT22;1883;48.202;16.310;2024-02-14T01:32:11;5.00;64.70
3736;DHT22;1883;48.202;16.310;2024-02-14T01:34:38;5.00;64.60
3736;DHT22;1883;48.202;16.310;2024-02-14T01:37:05;4.90;64.60
3736;DHT22;1883;48.202;16.310;2024-02-14T01:39:36;4.90;64.50
3736;DHT22;1883;48.202;16.310;2024-02-14T01:42:03;4.90;64.50
3736;DHT22;1883;48.202;16.310;2024-02-14T01:44:32;5.00;64.50
3736;DHT22;1883;48.202;16.310;2024-02-14T01:47:05;5.00;64.50
3736;DHT22;1883;48.202;16.310;2024-02-14T01:49:34;5.00;64.60
3736;DHT22;1883;48.202;16.310;2024-02-14T01:52:04;5.10;64.40
3736;DHT22;1883;48.202;16.310;2024-02-14T01:54:32;5.10;64.50
3736;DHT22;1883;48.202;16.310;2024-02-14T01:57:00;5.10;64.50
3736;DHT22;1883;48.202;16.310;2024-02-14T01:59:28;5.10;64.50
3736;DHT22;1883;48.202;16.310;2024-02-14T02:01:56;5.10;64.50
3736;DHT22;1883;48.202;16.310;2024-02-14T02:04:24;5.00;64.40
3736;DHT22;1883;48.202;16.310;2024-02-14T02:06:52;5.10;64.40
3736;DHT22;1883;48.202;16.310;2024-02-14T02:09:23;5.10;64.40
3736;DHT22;1883;48.202;16.310;2024-02-14T02:11:52;5.00;64.40
3736;DHT22;1883;48.202;16.310;2024-02-14T02:14:22;5.00;64.40
3736;DHT22;1883;48.202;16.310;2024-02-14T02:16:49;5.00;64.30
3736;DHT22;1883;48.202;16.310;2024-02-14T02:19:15;5.00;64.40
3736;DHT22;1883;48.202;16.310;2024-02-14T02:21:44;5.00;64.40
3736;DHT22;1883;48.202;16.310;2024-02-14T02:24:13;5.00;64.30
3736;DHT22;1883;48.202;16.310;2024-02-14T02:26:40;5.00;64.30
3736;DHT22;1883;48.202;16.310;2024-02-14T02:29:07;5.00;64.30
3736;DHT22;1883;48.202;16.310;2024-02-14T02:31:34;4.90;64.20
3736;DHT22;1883;48.202;16.310;2024-02-14T02:34:01;4.90;64.20
3736;DHT22;1883;48.202;16.310;2024-02-14T02:36:28;4.90;64.10
3736;DHT22;1883;48.202;16.310;2024-02-14T02:38:55;4.90;64.10
3736;DHT22;1883;48.202;16.310;2024-02-14T02:41:25;4.90;64.10
3736;DHT22;1883;48.202;16.310;2024-02-14T02:43:52;4.90;64.00
3736;DHT22;1883;48.202;16.310;2024-02-14T02:46:20;4.90;64.10
3736;DHT22;1883;48.202;16.310;2024-02-14T02:48:47;4.90;64.10
3736;DHT22;1883;48.202;16.310;2024-02-14T02:51:16;4.90;64.10
3736;DHT22;1883;48.202;16.310;2024-02-14T02:53:43;4.90;64.00
3736;DHT22;1883;48.202;16.310;2024-02-14T02:56:10;4.90;64.00
3736;DHT22;1883;48.202;16.310;2024-02-14T02:58:42;4.80;64.00
3736;DHT22;1883;48.202;16.310;2024-02-14T03:01:10;4.80;63.90
3736;DHT22;1883;48.202;16.310;2024-02-14T03:03:37;4.80;63.80
3736;DHT22;1883;48.202;16.310;2024-02-14T03:06:05;4.70;63.80
3736;DHT22;1883;48.202;16.310;2024-02-14T03:08:32;4.70;63.80
3736;DHT22;1883;48.202;16.310;2024-02-14T03:11:04;4.60;63.80
3736;DHT22;1883;48.202;16.310;2024-02-14T03:13:31;4.70;63.70
3736;DHT22;1883;48.202;16.310;2024-02-14T03:15:59;4.70;63.70
3736;DHT22;1883;48.202;16.310;2024-02-14T03:18:26;4.70;63.80
3736;DHT22;1883;48.202;16.310;2024-02-14T03:20:53;4.70;63.70
3736;DHT22;1883;48.202;16.310;2024-02-14T03:23:26;4.70;63.80
3736;DHT22;1883;48.202;16.310;2024-02-14T03:25:53;4.70;63.70
3736;DHT22;1883;48.202;16.310;2024-02-14T03:28:20;4.60;63.80
3736;DHT22;1883;48.202;16.310;2024-02-14T03:30:47;4.70;63.70
3736;DHT22;1883;48.202;16.310;2024-02-14T03:33:16;4.60;63.70
3736;DHT22;1883;48.202;16.310;2024-02-14T03:35:44;4.60;63.60
3736;DHT22;1883;48.202;16.310;2024-02-14T03:38:12;4.60;63.60
3736;DHT22;1883;48.202;16.310;2024-02-14T03:40:40;4.60;63.50
3736;DHT22;1883;48.202;16.310;2024-02-14T03:43:07;4.70;63.60
3736;DHT22;1883;48.202;16.310;2024-02-14T03:45:37;4.60;63.70
3736;DHT22;1883;48.202;16.310;2024-02-14T03:48:04;4.60;63.60
3736;DHT22;1883;48.202;16.310;2024-02-14T03:50:34;4.60;63.70
3736;DHT22;1883;48.202;16.310;2024-02-14T03:53:01;4.60;63.60
3736;DHT22;1883;48.202;16.310;2024-02-14T03:55:32;4.60;63.60
3736;DHT22;1883;48.202;16.310;2024-02-14T03:58:02;4.50;63.50
3736;DHT22;1883;48.202;16.310;2024-02-14T04:00:31;4.50;63.40
3736;DHT22;1883;48.202;16.310;2024-02-14T04:03:00;4.50;63.40
3736;DHT22;1883;48.202;16.310;2024-02-14T04:05:28;4.40;63.40
3736;DHT22;1883;48.202;16.310;2024-02-14T04:07:56;4.40;63.30
3736;DHT22;1883;48.202;16.310;2024-02-14T04:10:23;4.50;63.30
3736;DHT22;1883;48.202;16.310;2024-02-14T04:12:50;4.40;63.30
3736;DHT22;1883;48.202;16.310;2024-02-14T04:15:17;4.40;63.30
3736;DHT22;1883;48.202;16.310;2024-02-14T04:17:46;4.40;63.20
3736;DHT22;1883;48.202;16.310;2024-02-14T04:20:13;4.40;63.20
3736;DHT22;1883;48.202;16.310;2024-02-14T04:22:41;4.50;63.30
3736;DHT22;1883;48.202;16.310;2024-02-14T04:25:10;4.40;63.20
3736;DHT22;1883;48.202;16.310;2024-02-14T04:27:38;4.40;63.20
3736;DHT22;1883;48.202;16.310;2024-02-14T04:30:15;4.40;63.20
3736;DHT22;1883;48.202;16.310;2024-02-14T04:32:42;4.40;63.20
3736;DHT22;1883;48.202;16.310;2024-02-14T04:35:10;4.40;63.20
3736;DHT22;1883;48.202;16.310;2024-02-14T04:37:37;4.40;63.20
3736;DHT22;1883;48.202;16.310;2024-02-14T04:40:06;4.40;63.10
3736;DHT22;1883;48.202;16.310;2024-02-14T04:42:35;4.30;63.10
3736;DHT22;1883;48.202;16.310;2024-02-14T04:45:02;4.30;63.10
3736;DHT22;1883;48.202;16.310;2024-02-14T04:47:29;4.40;63.10
3736;DHT22;1883;48.202;16.310;2024-02-14T04:49:57;4.40;63.10
3736;DHT22;1883;48.202;16.310;2024-02-14T04:52:25;4.40;63.10
3736;DHT22;1883;48.202;16.310;2024-02-14T04:54:55;4.30;63.00
3736;DHT22;1883;48.202;16.310;2024-02-14T04:57:22;4.30;63.00
3736;DHT22;1883;48.202;16.310;2024-02-14T04:59:51;4.30;63.00
3736;DHT22;1883;48.202;16.310;2024-02-14T05:02:20;4.40;63.00
3736;DHT22;1883;48.202;16.310;2024-02-14T05:04:47;4.40;62.90
3736;DHT22;1883;48.202;16.310;2024-02-14T05:07:16;4.40;63.00
3736;DHT22;1883;48.202;16.310;2024-02-14T05:09:44;4.30;63.00
3736;DHT22;1883;48.202;16.310;2024-02-14T05:12:11;4.30;62.90
3736;DHT22;1883;48.202;16.310;2024-02-14T05:14:39;4.30;62.90
3736;DHT22;1883;48.202;16.310;2024-02-14T05:17:08;4.30;62.90
3736;DHT22;1883;48.202;16.310;2024-02-14T05:19:35;4.30;62.90
3736;DHT22;1883;48.202;16.310;2024-02-14T05:22:03;4.40;62.80
3736;DHT22;1883;48.202;16.310;2024-02-14T05:24:33;4.40;62.70
3736;DHT22;1883;48.202;16.310;2024-02-14T05:27:03;4.40;62.80
3736;DHT22;1883;48.202;16.310;2024-02-14T05:29:32;4.40;62.90
3736;DHT22;1883;48.202;16.310;2024-02-14T05:32:00;4.40;62.90
3736;DHT22;1883;48.202;16.310;2024-02-14T05:34:33;4.30;62.80
3736;DHT22;1883;48.202;16.310;2024-02-14T05:37:01;4.30;62.80
3736;DHT22;1883;48.202;16.310;2024-02-14T05:39:36;4.40;62.70
3736;DHT22;1883;48.202;16.310;2024-02-14T05:42:08;4.30;62.80
3736;DHT22;1883;48.202;16.310;2024-02-14T05:44:37;4.30;62.70
3736;DHT22;1883;48.202;16.310;2024-02-14T05:47:04;4.30;62.60
3736;DHT22;1883;48.202;16.310;2024-02-14T05:49:36;4.40;62.60
3736;DHT22;1883;48.202;16.310;2024-02-14T05:52:12;4.30;62.60
3736;DHT22;1883;48.202;16.310;2024-02-14T05:54:42;4.40;62.60
3736;DHT22;1883;48.202;16.310;2024-02-14T05:57:09;4.40;62.50
3736;DHT22;1883;48.202;16.310;2024-02-14T05:59:37;4.30;62.50
3736;DHT22;1883;48.202;16.310;2024-02-14T06:02:07;4.40;62.40
3736;DHT22;1883;48.202;16.310;2024-02-14T06:04:44;4.40;62.30
3736;DHT22;1883;48.202;16.310;2024-02-14T06:07:12;4.40;62.40
3736;DHT22;1883;48.202;16.310;2024-02-14T06:09:39;4.40;62.40
3736;DHT22;1883;48.202;16.310;2024-02-14T06:12:08;4.30;62.40
3736;DHT22;1883;48.202;16.310;2024-02-14T06:14:36;4.20;62.40
3736;DHT22;1883;48.202;16.310;2024-02-14T06:17:09;4.30;62.30
3736;DHT22;1883;48.202;16.310;2024-02-14T06:23:09;4.10;62.20
3736;DHT22;1883;48.202;16.310;2024-02-14T06:25:37;3.90;62.20
3736;DHT22;1883;48.202;16.310;2024-02-14T06:28:04;3.80;62.20
3736;DHT22;1883;48.202;16.310;2024-02-14T06:30:45;3.70;62.20
3736;DHT22;1883;48.202;16.310;2024-02-14T06:33:19;3.50;62.00
3736;DHT22;1883;48.202;16.310;2024-02-14T06:35:47;3.60;62.00
3736;DHT22;1883;48.202;16.310;2024-02-14T06:38:19;3.60;62.00
3736;DHT22;1883;48.202;16.310;2024-02-14T06:40:54;3.60;61.80
3736;DHT22;1883;48.202;16.310;2024-02-14T06:43:26;3.70;62.00
3736;DHT22;1883;48.202;16.310;2024-02-14T06:46:04;3.70;62.00
3736;DHT22;1883;48.202;16.310;2024-02-14T06:48:32;3.80;61.80
3736;DHT22;1883;48.202;16.310;2024-02-14T06:50:59;3.80;61.90
3736;DHT22;1883;48.202;16.310;2024-02-14T06:53:28;3.80;61.90
3736;DHT22;1883;48.202;16.310;2024-02-14T06:55:57;3.70;62.10
3736;DHT22;1883;48.202;16.310;2024-02-14T06:58:38;3.50;61.90
3736;DHT22;1883;48.202;16.310;2024-02-14T07:01:05;3.50;61.80
3736;DHT22;1883;48.202;16.310;2024-02-14T07:03:33;3.60;61.80
3736;DHT22;1883;48.202;16.310;2024-02-14T07:06:01;3.70;61.70
3736;DHT22;1883;48.202;16.310;2024-02-14T07:08:33;3.80;61.70
3736;DHT22;1883;48.202;16.310;2024-02-14T07:11:13;3.80;61.70
3736;DHT22;1883;48.202;16.310;2024-02-14T07:13:41;4.00;61.60
3736;DHT22;1883;48.202;16.310;2024-02-14T07:16:08;4.10;61.80
3736;DHT22;1883;48.202;16.310;2024-02-14T07:18:35;4.30;61.80
3736;DHT22;1883;48.202;16.310;2024-02-14T07:21:04;4.30;62.00
3736;DHT22;1883;48.202;16.310;2024-02-14T07:23:33;4.40;62.10
3736;DHT22;1883;48.202;16.310;2024-02-14T07:26:04;4.60;62.20
3736;DHT22;1883;48.202;16.310;2024-02-14T07:28:32;4.80;62.40
3736;DHT22;1883;48.202;16.310;2024-02-14T07:31:11;4.80;62.60
3736;DHT22;1883;48.202;16.310;2024-02-14T07:33:55;5.00;62.70
3736;DHT22;1883;48.202;16.310;2024-02-14T07:36:55;5.10;62.80
3736;DHT22;1883;48.202;16.310;2024-02-14T07:55:41;5.50;63.50
3736;DHT22;1883;48.202;16.310;2024-02-14T08:26:11;6.00;63.90
3736;DHT22;1883;48.202;16.310;2024-02-14T08:28:40;5.90;63.90
3736;DHT22;1883;48.202;16.310;2024-02-14T08:31:12;6.00;63.90
3736;DHT22;1883;48.202;16.310;2024-02-14T08:33:45;6.00;63.90
3736;DHT22;1883;48.202;16.310;2024-02-14T08:36:28;6.00;63.90
3736;DHT22;1883;48.202;16.310;2024-02-14T08:39:36;6.00;63.80
3736;DHT22;1883;48.202;16.310;2024-02-14T08:42:45;5.90;63.90
3736;DHT22;1883;48.202;16.310;2024-02-14T08:48:34;5.90;63.90
3736;DHT22;1883;48.202;16.310;2024-02-14T08:51:21;6.00;64.00
3736;DHT22;1883;48.202;16.310;2024-02-14T08:54:15;6.10;64.20
3736;DHT22;1883;48.202;16.310;2024-02-14T08:57:19;6.10;64.30
3736;DHT22;1883;48.202;16.310;2024-02-14T09:10:24;6.50;64.80
3736;DHT22;1883;48.202;16.310;2024-02-14T09:12:51;6.50;64.90
3736;DHT22;1883;48.202;16.310;2024-02-14T09:15:22;6.60;64.90
3736;DHT22;1883;48.202;16.310;2024-02-14T09:17:54;6.70;65.20
3736;DHT22;1883;48.202;16.310;2024-02-14T09:20:26;6.60;65.00
3736;DHT22;1883;48.202;16.310;2024-02-14T09:22:55;6.60;65.00
3736;DHT22;1883;48.202;16.310;2024-02-14T09:25:29;6.60;65.20
3736;DHT22;1883;48.202;16.310;2024-02-14T09:27:59;6.60;65.40
3736;DHT22;1883;48.202;16.310;2024-02-14T09:30:27;6.70;65.40
3736;DHT22;1883;48.202;16.310;2024-02-14T09:32:57;6.70;65.30
3736;DHT22;1883;48.202;16.310;2024-02-14T09:35:26;6.80;65.40
3736;DHT22;1883;48.202;16.310;2024-02-14T09:37:56;6.90;65.40
3736;DHT22;1883;48.202;16.310;2024-02-14T09:40:55;7.00;65.60
3736;DHT22;1883;48.202;16.310;2024-02-14T09:43:33;6.90;65.70
3736;DHT22;1883;48.202;16.310;2024-02-14T09:46:04;7.10;65.90
3736;DHT22;1883;48.202;16.310;2024-02-14T09:48:33;7.20;66.20
3736;DHT22;1883;48.202;16.310;2024-02-14T09:51:03;7.30;66.30
3736;DHT22;1883;48.202;16.310;2024-02-14T09:53:32;7.30;66.40
3736;DHT22;1883;48.202;16.310;2024-02-14T09:56:17;7.40;66.40
3736;DHT22;1883;48.202;16.310;2024-02-14T09:59:10;7.60;66.40
3736;DHT22;1883;48.202;16.310;2024-02-14T10:01:37;7.70;66.70
3736;DHT22;1883;48.202;16.310;2024-02-14T10:04:05;7.90;66.60
3736;DHT22;1883;48.202;16.310;2024-02-14T10:06:33;8.00;66.80
3736;DHT22;1883;48.202;16.310;2024-02-14T10:09:03;8.00;66.70
3736;DHT22;1883;48.202;16.310;2024-02-14T10:11:39;8.10;66.90
3736;DHT22;1883;48.202;16.310;2024-02-14T10:14:23;8.10;67.00
3736;DHT22;1883;48.202;16.310;2024-02-14T10:16:50;8.20;67.10
3736;DHT22;1883;48.202;16.310;2024-02-14T10:19:19;8.10;67.10
3736;DHT22;1883;48.202;16.310;2024-02-14T10:21:58;8.00;67.10
3736;DHT22;1883;48.202;16.310;2024-02-14T10:24:27;8.10;67.30
3736;DHT22;1883;48.202;16.310;2024-02-14T10:27:00;8.10;67.40
3736;DHT22;1883;48.202;16.310;2024-02-14T10:29:29;8.20;67.50
3736;DHT22;1883;48.202;16.310;2024-02-14T10:32:23;8.30;67.60
3736;DHT22;1883;48.202;16.310;2024-02-14T10:34:52;8.30;67.80
3736;DHT22;1883;48.202;16.310;2024-02-14T10:37:28;8.40;68.10
3736;DHT22;1883;48.202;16.310;2024-02-14T10:40:31;8.50;68.10
3736;DHT22;1883;48.202;16.310;2024-02-14T10:43:14;8.50;68.10
3736;DHT22;1883;48.202;16.310;2024-02-14T10:45:47;8.70;68.10
3736;DHT22;1883;48.202;16.310;2024-02-14T10:48:26;8.70;68.30
3736;DHT22;1883;48.202;16.310;2024-02-14T10:51:13;8.80;68.40
3736;DHT22;1883;48.202;16.310;2024-02-14T10:53:56;8.80;68.40
3736;DHT22;1883;48.202;16.310;2024-02-14T10:56:32;8.80;68.40
3736;DHT22;1883;48.202;16.310;2024-02-14T11:02:29;8.90;68.60
3736;DHT22;1883;48.202;16.310;2024-02-14T11:05:02;9.00;68.70
3736;DHT22;1883;48.202;16.310;2024-02-14T11:07:30;9.10;68.80
3736;DHT22;1883;48.202;16.310;2024-02-14T11:10:14;9.10;68.80
3736;DHT22;1883;48.202;16.310;2024-02-14T11:12:51;9.20;68.90
3736;DHT22;1883;48.202;16.310;2024-02-14T11:15:36;9.30;69.00
3736;DHT22;1883;48.202;16.310;2024-02-14T11:18:34;9.30;69.00
3736;DHT22;1883;48.202;16.310;2024-02-14T11:21:15;9.50;69.20
3736;DHT22;1883;48.202;16.310;2024-02-14T11:23:53;9.60;69.30
3736;DHT22;1883;48.202;16.310;2024-02-14T11:26:40;9.80;69.40
3736;DHT22;1883;48.202;16.310;2024-02-14T11:29:17;10.10;69.50
3736;DHT22;1883;48.202;16.310;2024-02-14T11:31:48;10.30;69.80
3736;DHT22;1883;48.202;16.310;2024-02-14T11:34:20;10.60;69.90
3736;DHT22;1883;48.202;16.310;2024-02-14T11:37:27;10.60;70.30
3736;DHT22;1883;48.202;16.310;2024-02-14T11:40:09;10.40;70.20
3736;DHT22;1883;48.202;16.310;2024-02-14T11:42:42;10.30;70.10
3736;DHT22;1883;48.202;16.310;2024-02-14T11:45:28;10.20;70.00
3736;DHT22;1883;48.202;16.310;2024-02-14T12:08:48;11.40;72.50
3736;DHT22;1883;48.202;16.310;2024-02-14T12:14:05;11.70;73.20
3736;DHT22;1883;48.202;16.310;2024-02-14T12:17:00;11.70;73.30
3736;DHT22;1883;48.202;16.310;2024-02-14T12:20:09;11.80;73.50
3736;DHT22;1883;48.202;16.310;2024-02-14T12:22:53;12.00;73.90
3736;DHT22;1883;48.202;16.310;2024-02-14T12:31:33;12.20;74.70
3736;DHT22;1883;48.202;16.310;2024-02-14T12:36:34;12.60;74.90
3736;DHT22;1883;48.202;16.310;2024-02-14T12:39:03;12.60;75.10
3736;DHT22;1883;48.202;16.310;2024-02-14T12:41:39;12.50;75.10
3736;DHT22;1883;48.202;16.310;2024-02-14T12:44:06;12.40;74.90
3736;DHT22;1883;48.202;16.310;2024-02-14T12:47:12;12.40;74.80
3736;DHT22;1883;48.202;16.310;2024-02-14T12:49:55;12.30;74.70
3736;DHT22;1883;48.202;16.310;2024-02-14T12:52:26;12.20;74.50
3736;DHT22;1883;48.202;16.310;2024-02-14T12:54:55;12.20;74.40
3736;DHT22;1883;48.202;16.310;2024-02-14T12:57:23;12.30;74.30
3736;DHT22;1883;48.202;16.310;2024-02-14T12:59:55;12.30;74.30
3736;DHT22;1883;48.202;16.310;2024-02-14T13:02:24;12.30;74.20
3736;DHT22;1883;48.202;16.310;2024-02-14T13:05:07;12.30;74.10
3736;DHT22;1883;48.202;16.310;2024-02-14T13:07:40;12.40;74.10
3736;DHT22;1883;48.202;16.310;2024-02-14T13:10:24;12.60;74.20
3736;DHT22;1883;48.202;16.310;2024-02-14T13:13:07;12.70;74.40
3736;DHT22;1883;48.202;16.310;2024-02-14T13:22:42;12.40;74.20
3736;DHT22;1883;48.202;16.310;2024-02-14T13:25:15;12.10;73.90
3736;DHT22;1883;48.202;16.310;2024-02-14T13:27:56;12.00;73.80
3736;DHT22;1883;48.202;16.310;2024-02-14T13:30:32;11.90;73.70
3736;DHT22;1883;48.202;16.310;2024-02-14T13:33:14;12.00;73.60
3736;DHT22;1883;48.202;16.310;2024-02-14T13:35:41;12.00;73.70
3736;DHT22;1883;48.202;16.310;2024-02-14T13:38:13;12.00;73.90
3736;DHT22;1883;48.202;16.310;2024-02-14T13:40:44;12.10;73.80
3736;DHT22;1883;48.202;16.310;2024-02-14T13:43:11;12.10;73.90
3736;DHT22;1883;48.202;16.310;2024-02-14T13:45:44;12.20;73.90
3736;DHT22;1883;48.202;16.310;2024-02-14T13:48:12;12.40;74.00
3736;DHT22;1883;48.202;16.310;2024-02-14T13:54:29;12.40;74.10
3736;DHT22;1883;48.202;16.310;2024-02-14T13:57:17;12.30;73.90
3736;DHT22;1883;48.202;16.310;2024-02-14T14:00:00;12.30;73.90
3736;DHT22;1883;48.202;16.310;2024-02-14T14:02:30;12.10;73.80
3736;DHT22;1883;48.202;16.310;2024-02-14T14:05:07;12.00;73.70
3736;DHT22;1883;48.202;16.310;2024-02-14T14:07:48;11.90;73.60
3736;DHT22;1883;48.202;16.310;2024-02-14T14:10:47;11.80;73.50
3736;DHT22;1883;48.202;16.310;2024-02-14T14:13:31;11.80;73.60
3736;DHT22;1883;48.202;16.310;2024-02-14T14:16:12;11.70;73.50
3736;DHT22;1883;48.202;16.310;2024-02-14T14:18:41;11.60;73.40
3736;DHT22;1883;48.202;16.310;2024-02-14T14:21:26;11.50;73.30
3736;DHT22;1883;48.202;16.310;2024-02-14T14:23:53;11.40;73.30
3736;DHT22;1883;48.202;16.310;2024-02-14T14:26:23;11.30;73.20
3736;DHT22;1883;48.202;16.310;2024-02-14T14:28:51;11.30;73.10
3736;DHT22;1883;48.202;16.310;2024-02-14T14:31:29;11.20;73.00
3736;DHT22;1883;48.202;16.310;2024-02-14T14:34:09;11.30;73.10
3736;DHT22;1883;48.202;16.310;2024-02-14T14:36:51;11.20;73.00
3736;DHT22;1883;48.202;16.310;2024-02-14T14:39:29;11.20;73.10
3736;DHT22;1883;48.202;16.310;2024-02-14T14:42:12;11.20;73.00
3736;DHT22;1883;48.202;16.310;2024-02-14T14:44:39;11.20;72.90
3736;DHT22;1883;48.202;16.310;2024-02-14T14:47:14;11.20;72.90
3736;DHT22;1883;48.202;16.310;2024-02-14T14:49:43;11.20;73.00
3736;DHT22;1883;48.202;16.310;2024-02-14T14:52:13;11.20;73.00
3736;DHT22;1883;48.202;16.310;2024-02-14T14:54:42;11.20;73.00
3736;DHT22;1883;48.202;16.310;2024-02-14T14:57:11;11.20;72.90
3736;DHT22;1883;48.202;16.310;2024-02-14T14:59:55;11.20;72.90
3736;DHT22;1883;48.202;16.310;2024-02-14T15:02:22;11.10;72.80
3736;DHT22;1883;48.202;16.310;2024-02-14T15:04:52;11.10;72.80
3736;DHT22;1883;48.202;16.310;2024-02-14T15:07:21;11.10;72.80
3736;DHT22;1883;48.202;16.310;2024-02-14T15:09:50;11.00;72.80
3736;DHT22;1883;48.202;16.310;2024-02-14T15:12:18;11.00;72.80
3736;DHT22;1883;48.202;16.310;2024-02-14T15:14:51;11.10;72.80
3736;DHT22;1883;48.202;16.310;2024-02-14T15:17:36;11.00;72.80
3736;DHT22;1883;48.202;16.310;2024-02-14T15:20:05;10.90;72.70
3736;DHT22;1883;48.202;16.310;2024-02-14T15:22:33;10.90;72.70
3736;DHT22;1883;48.202;16.310;2024-02-14T15:25:01;11.00;72.70
3736;DHT22;1883;48.202;16.310;2024-02-14T15:27:28;11.00;72.70
3736;DHT22;1883;48.202;16.310;2024-02-14T15:30:04;11.00;72.80
3736;DHT22;1883;48.202;16.310;2024-02-14T15:32:57;11.00;72.80
3736;DHT22;1883;48.202;16.310;2024-02-14T15:35:42;11.00;72.80
3736;DHT22;1883;48.202;16.310;2024-02-14T15:38:10;10.80;72.70
3736;DHT22;1883;48.202;16.310;2024-02-14T15:40:44;10.80;72.70
3736;DHT22;1883;48.202;16.310;2024-02-14T15:43:14;10.80;72.60
3736;DHT22;1883;48.202;16.310;2024-02-14T15:45:42;10.70;72.60
3736;DHT22;1883;48.202;16.310;2024-02-14T15:48:15;10.70;72.60
3736;DHT22;1883;48.202;16.310;2024-02-14T15:50:45;10.70;72.50
3736;DHT22;1883;48.202;16.310;2024-02-14T15:53:15;10.60;72.50
3736;DHT22;1883;48.202;16.310;2024-02-14T15:55:44;10.60;72.50
3736;DHT22;1883;48.202;16.310;2024-02-14T15:58:12;10.60;72.50
3736;DHT22;1883;48.202;16.310;2024-02-14T16:00:40;10.60;72.50
3736;DHT22;1883;48.202;16.310;2024-02-14T16:03:07;10.50;72.50
3736;DHT22;1883;48.202;16.310;2024-02-14T16:05:37;10.50;72.40
3736;DHT22;1883;48.202;16.310;2024-02-14T16:08:15;10.50;72.30
3736;DHT22;1883;48.202;16.310;2024-02-14T16:10:56;10.50;72.40
3736;DHT22;1883;48.202;16.310;2024-02-14T16:13:24;10.50;72.50
3736;DHT22;1883;48.202;16.310;2024-02-14T16:15:52;10.40;72.40
3736;DHT22;1883;48.202;16.310;2024-02-14T16:18:23;10.30;72.40
3736;DHT22;1883;48.202;16.310;2024-02-14T16:21:09;10.40;72.40
3736;DHT22;1883;48.202;16.310;2024-02-14T16:23:42;10.40;72.30
3736;DHT22;1883;48.202;16.310;2024-02-14T16:26:12;10.30;72.30
3736;DHT22;1883;48.202;16.310;2024-02-14T16:28:40;10.40;72.40
3736;DHT22;1883;48.202;16.310;2024-02-14T16:31:09;10.40;72.40
3736;DHT22;1883;48.202;16.310;2024-02-14T16:33:37;10.40;72.40
3736;DHT22;1883;48.202;16.310;2024-02-14T16:36:04;10.40;72.30
3736;DHT22;1883;48.202;16.310;2024-02-14T16:38:34;10.40;72.30
3736;DHT22;1883;48.202;16.310;2024-02-14T16:41:01;10.40;72.20
3736;DHT22;1883;48.202;16.310;2024-02-14T16:43:29;10.50;72.30
3736;DHT22;1883;48.202;16.310;2024-02-14T16:46:19;10.50;72.20
3736;DHT22;1883;48.202;16.310;2024-02-14T16:49:00;10.50;72.20
3736;DHT22;1883;48.202;16.310;2024-02-14T16:51:51;10.50;72.20
3736;DHT22;1883;48.202;16.310;2024-02-14T16:54:28;10.50;72.20
3736;DHT22;1883;48.202;16.310;2024-02-14T16:56:59;10.40;72.10
3736;DHT22;1883;48.202;16.310;2024-02-14T16:59:43;10.50;72.10
3736;DHT22;1883;48.202;16.310;2024-02-14T17:02:32;10.40;72.00
3736;DHT22;1883;48.202;16.310;2024-02-14T17:05:05;10.50;72.00
3736;DHT22;1883;48.202;16.310;2024-02-14T17:07:34;10.40;71.90
3736;DHT22;1883;48.202;16.310;2024-02-14T17:13:02;10.40;71.90
3736;DHT22;1883;48.202;16.310;2024-02-14T17:15:29;10.40;71.90
3736;DHT22;1883;48.202;16.310;2024-02-14T17:18:18;10.40;71.90
3736;DHT22;1883;48.202;16.310;2024-02-14T17:20:59;10.40;71.90
3736;DHT22;1883;48.202;16.310;2024-02-14T17:23:26;10.40;71.90
3736;DHT22;1883;48.202;16.310;2024-02-14T17:25:53;10.40;71.90
3736;DHT22;1883;48.202;16.310;2024-02-14T17:28:24;10.50;71.90
3736;DHT22;1883;48.202;16.310;2024-02-14T17:30:51;10.50;71.90
3736;DHT22;1883;48.202;16.310;2024-02-14T17:33:18;10.50;71.90
3736;DHT22;1883;48.202;16.310;2024-02-14T17:35:45;10.50;71.90
3736;DHT22;1883;48.202;16.310;2024-02-14T17:38:12;10.50;71.90
3736;DHT22;1883;48.202;16.310;2024-02-14T17:40:39;10.50;71.90
3736;DHT22;1883;48.202;16.310;2024-02-14T17:43:06;10.50;71.80
3736;DHT22;1883;48.202;16.310;2024-02-14T17:45:35;10.50;71.80
3736;DHT22;1883;48.202;16.310;2024-02-14T17:48:02;10.40;71.80
3736;DHT22;1883;48.202;16.310;2024-02-14T17:50:30;10.40;71.70
3736;DHT22;1883;48.202;16.310;2024-02-14T17:52:58;10.40;71.70
3736;DHT22;1883;48.202;16.310;2024-02-14T17:55:28;10.40;71.70
3736;DHT22;1883;48.202;16.310;2024-02-14T17:58:02;10.40;71.70
3736;DHT22;1883;48.202;16.310;2024-02-14T18:00:30;10.50;71.70
3736;DHT22;1883;48.202;16.310;2024-02-14T18:02:59;10.50;71.70
3736;DHT22;1883;48.202;16.310;2024-02-14T18:05:27;10.50;71.70
3736;DHT22;1883;48.202;16.310;2024-02-14T18:07:55;10.50;71.70
3736;DHT22;1883;48.202;16.310;2024-02-14T18:10:23;10.60;71.70
3736;DHT22;1883;48.202;16.310;2024-02-14T18:12:55;10.60;71.70
3736;DHT22;1883;48.202;16.310;2024-02-14T18:15:26;10.60;71.70
3736;DHT22;1883;48.202;16.310;2024-02-14T18:18:05;10.60;71.70